sensor_id;sensor_type;location;lat;lon;timestamp;temperature;humidity
30572;DHT22;17348;50.948;10.696;2022-12-07T00:02:24;2.90;99.90
30572;DHT22;17348;50.948;10.696;2022-12-07T00:05:29;2.80;99.90
30572;DHT22;17348;50.948;10.696;2022-12-07T00:08:32;2.80;99.90
30572;DHT22;17348;50.948;10.696;2022-12-07T00:11:35;2.80;99.90
30572;DHT22;17348;50.948;10.696;2022-12-07T00:14:37;2.80;99.90
30572;DHT22;17348;50.948;10.696;2022-12-07T00:17:40;2.80;99.90
30572;DHT22;17348;50.948;10.696;2022-12-07T00:20:43;2.80;99.90
30572;DHT22;17348;50.948;10.696;2022-12-07T00:23:47;2.80;99.90
30572;DHT22;17348;50.948;10.696;2022-12-07T00:26:50;2.80;99.90
30572;DHT22;17348;50.948;10.696;2022-12-07T00:29:52;2.80;99.90
30572;DHT22;17348;50.948;10.696;2022-12-07T00:32:55;2.80;99.90
30572;DHT22;17348;50.948;10.696;2022-12-07T00:35:59;2.80;99.90
30572;DHT22;17348;50.948;10.696;2022-12-07T00:39:01;2.70;99.90
30572;DHT22;17348;50.948;10.696;2022-12-07T00:42:03;2.70;99.90
30572;DHT22;17348;50.948;10.696;2022-12-07T00:45:07;2.60;99.90
30572;DHT22;17348;50.948;10.696;2022-12-07T00:48:09;2.60;99.90
30572;DHT22;17348;50.948;10.696;2022-12-07T00:51:15;2.60;99.90
30572;DHT22;17348;50.948;10.696;2022-12-07T00:54:18;2.70;99.90
30572;DHT22;17348;50.948;10.696;2022-12-07T00:57:20;2.60;99.90
30572;DHT22;17348;50.948;10.696;2022-12-07T01:00:22;2.70;99.90
30572;DHT22;17348;50.948;10.696;2022-12-07T01:03:25;2.60;99.90
30572;DHT22;17348;50.948;10.696;2022-12-07T01:06:29;2.70;99.90
30572;DHT22;17348;50.948;10.696;2022-12-07T01:09:32;2.80;99.90
30572;DHT22;17348;50.948;10.696;2022-12-07T01:12:34;2.80;99.90
30572;DHT22;17348;50.948;10.696;2022-12-07T01:15:39;2.80;99.90
30572;DHT22;17348;50.948;10.696;2022-12-07T01:18:42;2.90;99.90
30572;DHT22;17348;50.948;10.696;2022-12-07T01:21:46;2.90;99.90
30572;DHT22;17348;50.948;10.696;2022-12-07T01:24:48;2.90;99.90
30572;DHT22;17348;50.948;10.696;2022-12-07T01:27:51;2.90;99.90
30572;DHT22;17348;50.948;10.696;2022-12-07T01:30:57;2.90;99.90
30572;DHT22;17348;50.948;10.696;2022-12-07T01:34:00;3.00;99.90
30572;DHT22;17348;50.948;10.696;2022-12-07T01:37:04;3.00;99.90
30572;DHT22;17348;50.948;10.696;2022-12-07T01:40:07;3.00;99.90
30572;DHT22;17348;50.948;10.696;2022-12-07T01:43:15;3.00;99.90
30572;DHT22;17348;50.948;10.696;2022-12-07T01:46:19;3.00;99.90
30572;DHT22;17348;50.948;10.696;2022-12-07T01:49:26;3.10;99.90
30572;DHT22;17348;50.948;10.696;2022-12-07T01:52:33;3.10;99.90
30572;DHT22;17348;50.948;10.696;2022-12-07T01:55:40;3.00;99.90
30572;DHT22;17348;50.948;10.696;2022-12-07T01:58:43;3.00;99.90
30572;DHT22;17348;50.948;10.696;2022-12-07T02:01:49;3.00;99.90
30572;DHT22;17348;50.948;10.696;2022-12-07T02:04:54;3.00;99.90
30572;DHT22;17348;50.948;10.696;2022-12-07T02:08:05;3.10;99.90
30572;DHT22;17348;50.948;10.696;2022-12-07T02:11:07;3.00;99.90
30572;DHT22;17348;50.948;10.696;2022-12-07T02:14:12;3.10;99.90
30572;DHT22;17348;50.948;10.696;2022-12-07T02:17:20;3.10;99.90
30572;DHT22;17348;50.948;10.696;2022-12-07T02:20:30;3.10;99.90
30572;DHT22;17348;50.948;10.696;2022-12-07T02:23:57;3.10;99.90
30572;DHT22;17348;50.948;10.696;2022-12-07T02:27:36;3.20;99.90
30572;DHT22;17348;50.948;10.696;2022-12-07T02:30:47;3.30;99.90
30572;DHT22;17348;50.948;10.696;2022-12-07T02:33:54;3.30;99.90
30572;DHT22;17348;50.948;10.696;2022-12-07T02:37:05;3.30;99.90
30572;DHT22;17348;50.948;10.696;2022-12-07T02:40:12;3.40;99.90
30572;DHT22;17348;50.948;10.696;2022-12-07T02:43:19;3.40;99.90
30572;DHT22;17348;50.948;10.696;2022-12-07T02:46:29;3.40;99.90
30572;DHT22;17348;50.948;10.696;2022-12-07T02:49:33;3.50;99.90
30572;DHT22;17348;50.948;10.696;2022-12-07T02:52:36;3.50;99.90
30572;DHT22;17348;50.948;10.696;2022-12-07T02:55:40;3.60;99.90
30572;DHT22;17348;50.948;10.696;2022-12-07T02:58:52;3.60;99.90
30572;DHT22;17348;50.948;10.696;2022-12-07T03:02:11;3.60;99.90
30572;DHT22;17348;50.948;10.696;2022-12-07T03:05:39;3.60;99.90
30572;DHT22;17348;50.948;10.696;2022-12-07T03:08:52;3.70;99.90
30572;DHT22;17348;50.948;10.696;2022-12-07T03:12:01;3.70;99.90
30572;DHT22;17348;50.948;10.696;2022-12-07T03:15:10;3.70;99.90
30572;DHT22;17348;50.948;10.696;2022-12-07T03:18:17;3.70;99.90
30572;DHT22;17348;50.948;10.696;2022-12-07T03:21:25;3.70;99.90
30572;DHT22;17348;50.948;10.696;2022-12-07T03:24:31;3.70;99.90
30572;DHT22;17348;50.948;10.696;2022-12-07T03:27:38;3.70;99.90
30572;DHT22;17348;50.948;10.696;2022-12-07T03:30:46;3.70;99.90
30572;DHT22;17348;50.948;10.696;2022-12-07T03:33:58;3.70;99.90
30572;DHT22;17348;50.948;10.696;2022-12-07T03:37:04;3.70;99.90
30572;DHT22;17348;50.948;10.696;2022-12-07T03:40:12;3.70;99.90
30572;DHT22;17348;50.948;10.696;2022-12-07T03:43:16;3.70;99.90
30572;DHT22;17348;50.948;10.696;2022-12-07T03:46:25;3.80;99.90
30572;DHT22;17348;50.948;10.696;2022-12-07T03:49:38;3.70;99.90
30572;DHT22;17348;50.948;10.696;2022-12-07T03:52:44;3.80;99.90
30572;DHT22;17348;50.948;10.696;2022-12-07T03:55:48;3.80;99.90
30572;DHT22;17348;50.948;10.696;2022-12-07T03:58:52;3.70;99.90
30572;DHT22;17348;50.948;10.696;2022-12-07T04:01:56;3.80;99.90
30572;DHT22;17348;50.948;10.696;2022-12-07T04:05:00;3.70;99.90
30572;DHT22;17348;50.948;10.696;2022-12-07T04:08:03;3.70;99.90
30572;DHT22;17348;50.948;10.696;2022-12-07T04:11:05;3.70;99.90
30572;DHT22;17348;50.948;10.696;2022-12-07T04:14:08;3.70;99.90
30572;DHT22;17348;50.948;10.696;2022-12-07T04:17:22;3.70;99.90
30572;DHT22;17348;50.948;10.696;2022-12-07T04:20:26;3.70;99.90
30572;DHT22;17348;50.948;10.696;2022-12-07T04:23:28;3.70;99.90
30572;DHT22;17348;50.948;10.696;2022-12-07T04:26:31;3.70;99.90
30572;DHT22;17348;50.948;10.696;2022-12-07T04:29:33;3.70;99.90
30572;DHT22;17348;50.948;10.696;2022-12-07T04:32:35;3.70;99.90
30572;DHT22;17348;50.948;10.696;2022-12-07T04:35:39;3.80;99.90
30572;DHT22;17348;50.948;10.696;2022-12-07T04:38:43;3.70;99.90
30572;DHT22;17348;50.948;10.696;2022-12-07T04:41:45;3.70;99.90
30572;DHT22;17348;50.948;10.696;2022-12-07T04:44:48;3.70;99.90
30572;DHT22;17348;50.948;10.696;2022-12-07T04:47:50;3.70;99.90
30572;DHT22;17348;50.948;10.696;2022-12-07T04:50:54;3.80;99.90
30572;DHT22;17348;50.948;10.696;2022-12-07T04:53:56;3.70;99.90
30572;DHT22;17348;50.948;10.696;2022-12-07T04:56:59;3.70;99.90
30572;DHT22;17348;50.948;10.696;2022-12-07T05:00:02;3.70;99.90
30572;DHT22;17348;50.948;10.696;2022-12-07T05:03:08;3.70;99.90
30572;DHT22;17348;50.948;10.696;2022-12-07T05:06:12;3.70;99.90
30572;DHT22;17348;50.948;10.696;2022-12-07T05:09:14;3.70;99.90
30572;DHT22;17348;50.948;10.696;2022-12-07T05:12:17;3.80;99.90
30572;DHT22;17348;50.948;10.696;2022-12-07T05:15:19;3.80;99.90
30572;DHT22;17348;50.948;10.696;2022-12-07T05:18:21;3.80;99.90
30572;DHT22;17348;50.948;10.696;2022-12-07T05:21:25;3.70;99.90
30572;DHT22;17348;50.948;10.696;2022-12-07T05:24:27;3.80;99.90
30572;DHT22;17348;50.948;10.696;2022-12-07T05:27:30;3.80;99.90
30572;DHT22;17348;50.948;10.696;2022-12-07T05:30:32;3.80;99.90
30572;DHT22;17348;50.948;10.696;2022-12-07T05:33:35;3.80;99.90
30572;DHT22;17348;50.948;10.696;2022-12-07T05:36:39;3.80;99.90
30572;DHT22;17348;50.948;10.696;2022-12-07T05:39:41;3.80;99.90
30572;DHT22;17348;50.948;10.696;2022-12-07T05:42:43;3.80;99.90
30572;DHT22;17348;50.948;10.696;2022-12-07T05:45:46;3.70;99.90
30572;DHT22;17348;50.948;10.696;2022-12-07T05:48:48;3.70;99.90
30572;DHT22;17348;50.948;10.696;2022-12-07T05:51:52;3.70;99.90
30572;DHT22;17348;50.948;10.696;2022-12-07T05:54:54;3.70;99.90
30572;DHT22;17348;50.948;10.696;2022-12-07T05:57:56;3.70;99.90
30572;DHT22;17348;50.948;10.696;2022-12-07T06:01:31;3.70;99.90
30572;DHT22;17348;50.948;10.696;2022-12-07T06:04:34;3.70;99.90
30572;DHT22;17348;50.948;10.696;2022-12-07T06:07:38;3.70;99.90
30572;DHT22;17348;50.948;10.696;2022-12-07T06:10:41;3.70;99.90
30572;DHT22;17348;50.948;10.696;2022-12-07T06:13:43;3.70;99.90
30572;DHT22;17348;50.948;10.696;2022-12-07T06:16:45;3.70;99.90
30572;DHT22;17348;50.948;10.696;2022-12-07T06:19:47;3.70;99.90
30572;DHT22;17348;50.948;10.696;2022-12-07T06:22:51;3.70;99.90
30572;DHT22;17348;50.948;10.696;2022-12-07T06:25:53;3.70;99.90
30572;DHT22;17348;50.948;10.696;2022-12-07T06:28:55;3.70;99.90
30572;DHT22;17348;50.948;10.696;2022-12-07T06:31:58;3.70;99.90
30572;DHT22;17348;50.948;10.696;2022-12-07T06:35:00;3.70;99.90
30572;DHT22;17348;50.948;10.696;2022-12-07T06:38:04;3.70;99.90
30572;DHT22;17348;50.948;10.696;2022-12-07T06:41:06;3.80;99.90
30572;DHT22;17348;50.948;10.696;2022-12-07T06:44:09;3.80;99.90
30572;DHT22;17348;50.948;10.696;2022-12-07T06:47:11;3.80;99.90
30572;DHT22;17348;50.948;10.696;2022-12-07T06:50:13;3.80;99.90
30572;DHT22;17348;50.948;10.696;2022-12-07T06:53:17;3.80;99.90
30572;DHT22;17348;50.948;10.696;2022-12-07T06:56:20;3.80;99.90
30572;DHT22;17348;50.948;10.696;2022-12-07T06:59:22;3.80;99.90
30572;DHT22;17348;50.948;10.696;2022-12-07T07:02:24;3.80;99.90
30572;DHT22;17348;50.948;10.696;2022-12-07T07:05:27;3.80;99.90
30572;DHT22;17348;50.948;10.696;2022-12-07T07:08:30;3.90;99.90
30572;DHT22;17348;50.948;10.696;2022-12-07T07:11:33;3.90;99.90
30572;DHT22;17348;50.948;10.696;2022-12-07T07:14:35;3.80;99.90
30572;DHT22;17348;50.948;10.696;2022-12-07T07:17:38;3.80;99.90
30572;DHT22;17348;50.948;10.696;2022-12-07T07:20:40;3.70;99.90
30572;DHT22;17348;50.948;10.696;2022-12-07T07:23:44;3.70;99.90
30572;DHT22;17348;50.948;10.696;2022-12-07T07:26:46;3.70;99.90
30572;DHT22;17348;50.948;10.696;2022-12-07T07:29:48;3.70;99.90
30572;DHT22;17348;50.948;10.696;2022-12-07T07:32:56;3.70;99.90
30572;DHT22;17348;50.948;10.696;2022-12-07T07:35:58;3.70;99.90
30572;DHT22;17348;50.948;10.696;2022-12-07T07:39:02;3.80;99.90
30572;DHT22;17348;50.948;10.696;2022-12-07T07:42:05;3.80;99.90
30572;DHT22;17348;50.948;10.696;2022-12-07T07:45:09;3.80;99.90
30572;DHT22;17348;50.948;10.696;2022-12-07T07:48:11;3.80;99.90
30572;DHT22;17348;50.948;10.696;2022-12-07T07:51:16;3.80;99.90
30572;DHT22;17348;50.948;10.696;2022-12-07T07:54:20;3.90;99.90
30572;DHT22;17348;50.948;10.696;2022-12-07T07:57:22;3.80;99.90
30572;DHT22;17348;50.948;10.696;2022-12-07T08:00:25;3.80;99.90
30572;DHT22;17348;50.948;10.696;2022-12-07T08:03:27;3.90;99.90
30572;DHT22;17348;50.948;10.696;2022-12-07T08:06:29;3.90;99.90
30572;DHT22;17348;50.948;10.696;2022-12-07T08:09:33;3.90;99.90
30572;DHT22;17348;50.948;10.696;2022-12-07T08:12:36;4.00;99.90
30572;DHT22;17348;50.948;10.696;2022-12-07T08:16:03;3.90;99.90
30572;DHT22;17348;50.948;10.696;2022-12-07T08:19:06;3.90;99.90
30572;DHT22;17348;50.948;10.696;2022-12-07T08:22:09;3.90;99.90
30572;DHT22;17348;50.948;10.696;2022-12-07T08:25:13;3.90;99.90
30572;DHT22;17348;50.948;10.696;2022-12-07T08:28:15;3.80;99.90
30572;DHT22;17348;50.948;10.696;2022-12-07T08:31:18;3.90;99.90
30572;DHT22;17348;50.948;10.696;2022-12-07T08:34:20;3.90;99.90
30572;DHT22;17348;50.948;10.696;2022-12-07T08:37:23;3.90;99.90
30572;DHT22;17348;50.948;10.696;2022-12-07T08:40:26;4.00;99.90
30572;DHT22;17348;50.948;10.696;2022-12-07T08:43:29;4.00;99.90
30572;DHT22;17348;50.948;10.696;2022-12-07T08:46:34;4.10;99.90
30572;DHT22;17348;50.948;10.696;2022-12-07T08:49:41;4.20;99.90
30572;DHT22;17348;50.948;10.696;2022-12-07T08:52:49;4.30;99.90
30572;DHT22;17348;50.948;10.696;2022-12-07T08:55:56;4.40;99.90
30572;DHT22;17348;50.948;10.696;2022-12-07T08:58:59;4.50;99.90
30572;DHT22;17348;50.948;10.696;2022-12-07T09:02:01;4.60;99.90
30572;DHT22;17348;50.948;10.696;2022-12-07T09:05:05;4.60;99.90
30572;DHT22;17348;50.948;10.696;2022-12-07T09:08:07;4.60;99.90
30572;DHT22;17348;50.948;10.696;2022-12-07T09:11:11;4.50;99.90
30572;DHT22;17348;50.948;10.696;2022-12-07T09:14:14;4.50;99.90
30572;DHT22;17348;50.948;10.696;2022-12-07T09:17:16;4.50;99.90
30572;DHT22;17348;50.948;10.696;2022-12-07T09:20:19;4.50;99.90
30572;DHT22;17348;50.948;10.696;2022-12-07T09:23:21;4.60;99.90
30572;DHT22;17348;50.948;10.696;2022-12-07T09:26:25;4.60;99.90
30572;DHT22;17348;50.948;10.696;2022-12-07T09:29:27;4.50;99.90
30572;DHT22;17348;50.948;10.696;2022-12-07T09:32:30;4.50;99.90
30572;DHT22;17348;50.948;10.696;2022-12-07T09:35:32;4.50;99.90
30572;DHT22;17348;50.948;10.696;2022-12-07T09:38:34;4.50;99.90
30572;DHT22;17348;50.948;10.696;2022-12-07T09:41:40;4.50;99.90
30572;DHT22;17348;50.948;10.696;2022-12-07T09:44:44;4.60;99.90
30572;DHT22;17348;50.948;10.696;2022-12-07T09:47:47;4.60;99.90
30572;DHT22;17348;50.948;10.696;2022-12-07T09:50:51;4.60;99.90
30572;DHT22;17348;50.948;10.696;2022-12-07T09:53:56;4.60;99.90
30572;DHT22;17348;50.948;10.696;2022-12-07T09:57:01;4.70;99.90
30572;DHT22;17348;50.948;10.696;2022-12-07T10:00:10;4.80;99.90
30572;DHT22;17348;50.948;10.696;2022-12-07T10:03:13;4.90;99.90
30572;DHT22;17348;50.948;10.696;2022-12-07T10:06:16;4.90;99.90
30572;DHT22;17348;50.948;10.696;2022-12-07T10:09:20;4.90;99.90
30572;DHT22;17348;50.948;10.696;2022-12-07T10:12:25;5.00;99.90
30572;DHT22;17348;50.948;10.696;2022-12-07T10:15:46;5.10;99.90
30572;DHT22;17348;50.948;10.696;2022-12-07T10:18:49;5.10;99.90
30572;DHT22;17348;50.948;10.696;2022-12-07T10:22:09;5.20;99.90
30572;DHT22;17348;50.948;10.696;2022-12-07T10:25:18;5.20;99.90
30572;DHT22;17348;50.948;10.696;2022-12-07T10:28:22;5.20;99.90
30572;DHT22;17348;50.948;10.696;2022-12-07T10:31:25;5.20;99.90
30572;DHT22;17348;50.948;10.696;2022-12-07T10:34:29;5.10;99.90
30572;DHT22;17348;50.948;10.696;2022-12-07T10:37:40;5.00;99.90
30572;DHT22;17348;50.948;10.696;2022-12-07T10:40:43;5.00;99.90
30572;DHT22;17348;50.948;10.696;2022-12-07T10:43:52;5.00;99.90
30572;DHT22;17348;50.948;10.696;2022-12-07T10:47:24;4.90;99.90
30572;DHT22;17348;50.948;10.696;2022-12-07T10:50:47;4.90;99.90
30572;DHT22;17348;50.948;10.696;2022-12-07T10:54:03;5.00;99.90
30572;DHT22;17348;50.948;10.696;2022-12-07T10:57:22;5.10;99.90
30572;DHT22;17348;50.948;10.696;2022-12-07T11:00:36;5.10;99.90
30572;DHT22;17348;50.948;10.696;2022-12-07T11:03:42;5.20;99.90
30572;DHT22;17348;50.948;10.696;2022-12-07T11:06:52;5.30;99.90
30572;DHT22;17348;50.948;10.696;2022-12-07T11:10:02;5.30;99.90
30572;DHT22;17348;50.948;10.696;2022-12-07T11:13:38;5.30;99.90
30572;DHT22;17348;50.948;10.696;2022-12-07T11:16:52;5.40;99.90
30572;DHT22;17348;50.948;10.696;2022-12-07T11:20:05;5.30;99.90
30572;DHT22;17348;50.948;10.696;2022-12-07T11:23:21;5.30;99.90
30572;DHT22;17348;50.948;10.696;2022-12-07T11:26:43;5.40;99.90
30572;DHT22;17348;50.948;10.696;2022-12-07T11:29:55;5.40;99.90
30572;DHT22;17348;50.948;10.696;2022-12-07T11:33:10;5.50;99.90
30572;DHT22;17348;50.948;10.696;2022-12-07T11:36:31;5.30;99.90
30572;DHT22;17348;50.948;10.696;2022-12-07T11:39:41;5.40;99.90
30572;DHT22;17348;50.948;10.696;2022-12-07T11:42:49;5.50;99.90
30572;DHT22;17348;50.948;10.696;2022-12-07T11:45:57;5.50;99.90
30572;DHT22;17348;50.948;10.696;2022-12-07T11:49:08;5.50;99.90
30572;DHT22;17348;50.948;10.696;2022-12-07T11:52:20;5.40;99.90
30572;DHT22;17348;50.948;10.696;2022-12-07T11:55:29;5.50;99.90
30572;DHT22;17348;50.948;10.696;2022-12-07T11:58:41;5.50;99.90
30572;DHT22;17348;50.948;10.696;2022-12-07T12:01:52;5.50;99.90
30572;DHT22;17348;50.948;10.696;2022-12-07T12:05:02;5.50;99.90
30572;DHT22;17348;50.948;10.696;2022-12-07T12:08:14;5.60;99.90
30572;DHT22;17348;50.948;10.696;2022-12-07T12:11:32;5.60;99.90
30572;DHT22;17348;50.948;10.696;2022-12-07T12:14:46;5.50;99.90
30572;DHT22;17348;50.948;10.696;2022-12-07T12:18:13;5.50;99.90
30572;DHT22;17348;50.948;10.696;2022-12-07T12:21:27;5.60;99.90
30572;DHT22;17348;50.948;10.696;2022-12-07T12:24:32;5.60;99.90
30572;DHT22;17348;50.948;10.696;2022-12-07T12:27:39;5.60;99.90
30572;DHT22;17348;50.948;10.696;2022-12-07T12:30:42;5.50;99.90
30572;DHT22;17348;50.948;10.696;2022-12-07T12:33:45;5.50;99.90
30572;DHT22;17348;50.948;10.696;2022-12-07T12:36:49;5.30;99.90
30572;DHT22;17348;50.948;10.696;2022-12-07T12:43:47;5.10;99.90
30572;DHT22;17348;50.948;10.696;2022-12-07T12:46:52;5.10;99.90
30572;DHT22;17348;50.948;10.696;2022-12-07T12:50:17;5.10;99.90
30572;DHT22;17348;50.948;10.696;2022-12-07T12:53:23;5.10;99.90
30572;DHT22;17348;50.948;10.696;2022-12-07T12:56:35;5.20;99.90
30572;DHT22;17348;50.948;10.696;2022-12-07T12:59:42;5.30;99.90
30572;DHT22;17348;50.948;10.696;2022-12-07T13:02:59;5.40;99.90
30572;DHT22;17348;50.948;10.696;2022-12-07T13:06:19;5.40;99.90
30572;DHT22;17348;50.948;10.696;2022-12-07T13:09:26;5.30;99.90
30572;DHT22;17348;50.948;10.696;2022-12-07T13:12:29;5.30;99.90
30572;DHT22;17348;50.948;10.696;2022-12-07T13:15:35;5.20;99.90
30572;DHT22;17348;50.948;10.696;2022-12-07T13:18:39;5.10;99.90
30572;DHT22;17348;50.948;10.696;2022-12-07T13:21:42;5.10;99.90
30572;DHT22;17348;50.948;10.696;2022-12-07T13:24:47;5.10;99.90
30572;DHT22;17348;50.948;10.696;2022-12-07T13:27:55;5.10;99.90
30572;DHT22;17348;50.948;10.696;2022-12-07T13:31:18;5.20;99.90
30572;DHT22;17348;50.948;10.696;2022-12-07T13:34:32;5.10;99.90
30572;DHT22;17348;50.948;10.696;2022-12-07T13:37:35;5.10;99.90
30572;DHT22;17348;50.948;10.696;2022-12-07T13:40:38;5.00;99.90
30572;DHT22;17348;50.948;10.696;2022-12-07T13:43:50;4.90;99.90
30572;DHT22;17348;50.948;10.696;2022-12-07T13:47:04;4.90;99.90
30572;DHT22;17348;50.948;10.696;2022-12-07T13:50:23;4.80;99.90
30572;DHT22;17348;50.948;10.696;2022-12-07T13:53:25;4.70;99.90
30572;DHT22;17348;50.948;10.696;2022-12-07T13:56:34;4.60;99.90
30572;DHT22;17348;50.948;10.696;2022-12-07T13:59:37;4.60;99.90
30572;DHT22;17348;50.948;10.696;2022-12-07T14:02:55;4.50;99.90
30572;DHT22;17348;50.948;10.696;2022-12-07T14:06:25;4.50;99.90
30572;DHT22;17348;50.948;10.696;2022-12-07T14:09:29;4.50;99.90
30572;DHT22;17348;50.948;10.696;2022-12-07T14:12:36;4.50;99.90
30572;DHT22;17348;50.948;10.696;2022-12-07T14:15:38;4.50;99.90
30572;DHT22;17348;50.948;10.696;2022-12-07T14:18:41;4.50;99.90
30572;DHT22;17348;50.948;10.696;2022-12-07T14:21:43;4.40;99.90
30572;DHT22;17348;50.948;10.696;2022-12-07T14:24:46;4.40;99.90
30572;DHT22;17348;50.948;10.696;2022-12-07T14:27:56;4.40;99.90
30572;DHT22;17348;50.948;10.696;2022-12-07T14:30:59;4.40;99.90
30572;DHT22;17348;50.948;10.696;2022-12-07T14:34:02;4.40;99.90
30572;DHT22;17348;50.948;10.696;2022-12-07T14:37:07;4.30;99.90
30572;DHT22;17348;50.948;10.696;2022-12-07T14:40:14;4.40;99.90
30572;DHT22;17348;50.948;10.696;2022-12-07T14:43:19;4.40;99.90
30572;DHT22;17348;50.948;10.696;2022-12-07T14:46:22;4.40;99.90
30572;DHT22;17348;50.948;10.696;2022-12-07T14:49:24;4.40;99.90
30572;DHT22;17348;50.948;10.696;2022-12-07T14:52:29;4.30;99.90
30572;DHT22;17348;50.948;10.696;2022-12-07T14:55:32;4.40;99.90
30572;DHT22;17348;50.948;10.696;2022-12-07T14:58:35;4.30;99.90
30572;DHT22;17348;50.948;10.696;2022-12-07T15:01:38;4.30;99.90
30572;DHT22;17348;50.948;10.696;2022-12-07T15:04:41;4.30;99.90
30572;DHT22;17348;50.948;10.696;2022-12-07T15:07:43;4.30;99.90
30572;DHT22;17348;50.948;10.696;2022-12-07T15:10:46;4.30;99.90
30572;DHT22;17348;50.948;10.696;2022-12-07T15:13:49;4.30;99.90
30572;DHT22;17348;50.948;10.696;2022-12-07T15:17:12;4.20;99.90
30572;DHT22;17348;50.948;10.696;2022-12-07T15:20:16;4.20;99.90
30572;DHT22;17348;50.948;10.696;2022-12-07T15:23:19;4.20;99.90
30572;DHT22;17348;50.948;10.696;2022-12-07T15:26:21;4.10;99.90
30572;DHT22;17348;50.948;10.696;2022-12-07T15:29:25;4.10;99.90
30572;DHT22;17348;50.948;10.696;2022-12-07T15:32:28;4.10;99.90
30572;DHT22;17348;50.948;10.696;2022-12-07T15:35:30;4.00;99.90
30572;DHT22;17348;50.948;10.696;2022-12-07T15:38:33;4.00;99.90
30572;DHT22;17348;50.948;10.696;2022-12-07T15:41:35;4.00;99.90
30572;DHT22;17348;50.948;10.696;2022-12-07T15:44:39;3.90;99.90
30572;DHT22;17348;50.948;10.696;2022-12-07T15:47:59;3.90;99.90
30572;DHT22;17348;50.948;10.696;2022-12-07T15:51:02;3.90;99.90
30572;DHT22;17348;50.948;10.696;2022-12-07T15:54:05;3.90;99.90
30572;DHT22;17348;50.948;10.696;2022-12-07T15:57:07;3.90;99.90
30572;DHT22;17348;50.948;10.696;2022-12-07T16:00:12;3.80;99.90
30572;DHT22;17348;50.948;10.696;2022-12-07T16:03:15;3.70;99.90
30572;DHT22;17348;50.948;10.696;2022-12-07T16:06:17;3.70;99.90
30572;DHT22;17348;50.948;10.696;2022-12-07T16:09:20;3.70;99.90
30572;DHT22;17348;50.948;10.696;2022-12-07T16:12:22;3.60;99.90
30572;DHT22;17348;50.948;10.696;2022-12-07T16:15:27;3.60;99.90
30572;DHT22;17348;50.948;10.696;2022-12-07T16:18:29;3.60;99.90
30572;DHT22;17348;50.948;10.696;2022-12-07T16:21:32;3.60;99.90
30572;DHT22;17348;50.948;10.696;2022-12-07T16:24:35;3.60;99.90
30572;DHT22;17348;50.948;10.696;2022-12-07T16:27:37;3.60;99.90
30572;DHT22;17348;50.948;10.696;2022-12-07T16:30:42;3.60;99.90
30572;DHT22;17348;50.948;10.696;2022-12-07T16:33:45;3.50;99.90
30572;DHT22;17348;50.948;10.696;2022-12-07T16:36:47;3.50;99.90
30572;DHT22;17348;50.948;10.696;2022-12-07T16:39:49;3.50;99.90
30572;DHT22;17348;50.948;10.696;2022-12-07T16:42:52;3.50;99.90
30572;DHT22;17348;50.948;10.696;2022-12-07T16:45:56;3.40;99.90
30572;DHT22;17348;50.948;10.696;2022-12-07T16:48:58;3.40;99.90
30572;DHT22;17348;50.948;10.696;2022-12-07T16:52:00;3.50;99.90
30572;DHT22;17348;50.948;10.696;2022-12-07T16:55:03;3.50;99.90
30572;DHT22;17348;50.948;10.696;2022-12-07T16:58:06;3.50;99.90
30572;DHT22;17348;50.948;10.696;2022-12-07T17:01:11;3.50;99.90
30572;DHT22;17348;50.948;10.696;2022-12-07T17:04:14;3.60;99.90
30572;DHT22;17348;50.948;10.696;2022-12-07T17:07:16;3.60;99.90
30572;DHT22;17348;50.948;10.696;2022-12-07T17:10:19;3.60;99.90
30572;DHT22;17348;50.948;10.696;2022-12-07T17:13:21;3.60;99.90
30572;DHT22;17348;50.948;10.696;2022-12-07T17:16:42;3.60;99.90
30572;DHT22;17348;50.948;10.696;2022-12-07T17:19:44;3.60;99.90
30572;DHT22;17348;50.948;10.696;2022-12-07T17:22:47;3.60;99.90
30572;DHT22;17348;50.948;10.696;2022-12-07T17:25:50;3.50;99.90
30572;DHT22;17348;50.948;10.696;2022-12-07T17:28:52;3.50;99.90
30572;DHT22;17348;50.948;10.696;2022-12-07T17:31:56;3.50;99.90
30572;DHT22;17348;50.948;10.696;2022-12-07T17:34:58;3.40;99.90
30572;DHT22;17348;50.948;10.696;2022-12-07T17:38:01;3.40;99.90
30572;DHT22;17348;50.948;10.696;2022-12-07T17:41:09;3.40;99.90
30572;DHT22;17348;50.948;10.696;2022-12-07T17:44:13;3.40;99.90
30572;DHT22;17348;50.948;10.696;2022-12-07T17:47:18;3.40;99.90
30572;DHT22;17348;50.948;10.696;2022-12-07T17:50:21;3.40;99.90
30572;DHT22;17348;50.948;10.696;2022-12-07T17:53:43;3.50;99.90
30572;DHT22;17348;50.948;10.696;2022-12-07T17:56:45;3.50;99.90
30572;DHT22;17348;50.948;10.696;2022-12-07T17:59:48;3.50;99.90
30572;DHT22;17348;50.948;10.696;2022-12-07T18:02:52;3.50;99.90
30572;DHT22;17348;50.948;10.696;2022-12-07T18:05:54;3.50;99.90
30572;DHT22;17348;50.948;10.696;2022-12-07T18:08:57;3.50;99.90
30572;DHT22;17348;50.948;10.696;2022-12-07T18:11:59;3.50;99.90
30572;DHT22;17348;50.948;10.696;2022-12-07T18:15:02;3.50;99.90
30572;DHT22;17348;50.948;10.696;2022-12-07T18:18:06;3.50;99.90
30572;DHT22;17348;50.948;10.696;2022-12-07T18:21:11;3.50;99.90
30572;DHT22;17348;50.948;10.696;2022-12-07T18:24:16;3.50;99.90
30572;DHT22;17348;50.948;10.696;2022-12-07T18:27:19;3.50;99.90
30572;DHT22;17348;50.948;10.696;2022-12-07T18:30:22;3.50;99.90
30572;DHT22;17348;50.948;10.696;2022-12-07T18:33:26;3.50;99.90
30572;DHT22;17348;50.948;10.696;2022-12-07T18:36:28;3.50;99.90
30572;DHT22;17348;50.948;10.696;2022-12-07T18:39:30;3.60;99.90
30572;DHT22;17348;50.948;10.696;2022-12-07T18:42:33;3.60;99.90
30572;DHT22;17348;50.948;10.696;2022-12-07T18:45:35;3.50;99.90
30572;DHT22;17348;50.948;10.696;2022-12-07T18:48:39;3.50;99.90
30572;DHT22;17348;50.948;10.696;2022-12-07T18:51:42;3.50;99.90
30572;DHT22;17348;50.948;10.696;2022-12-07T18:54:46;3.50;99.90
30572;DHT22;17348;50.948;10.696;2022-12-07T18:57:48;3.50;99.90
30572;DHT22;17348;50.948;10.696;2022-12-07T19:00:50;3.50;99.90
30572;DHT22;17348;50.948;10.696;2022-12-07T19:03:54;3.50;99.90
30572;DHT22;17348;50.948;10.696;2022-12-07T19:06:56;3.50;99.90
30572;DHT22;17348;50.948;10.696;2022-12-07T19:09:59;3.50;99.90
30572;DHT22;17348;50.948;10.696;2022-12-07T19:13:01;3.50;99.90
30572;DHT22;17348;50.948;10.696;2022-12-07T19:16:06;3.40;99.90
30572;DHT22;17348;50.948;10.696;2022-12-07T19:19:10;3.40;99.90
30572;DHT22;17348;50.948;10.696;2022-12-07T19:22:14;3.40;99.90
30572;DHT22;17348;50.948;10.696;2022-12-07T19:25:17;3.40;99.90
30572;DHT22;17348;50.948;10.696;2022-12-07T19:28:19;3.40;99.90
30572;DHT22;17348;50.948;10.696;2022-12-07T19:31:22;3.40;99.90
30572;DHT22;17348;50.948;10.696;2022-12-07T19:34:25;3.40;99.90
30572;DHT22;17348;50.948;10.696;2022-12-07T19:37:28;3.40;99.90